INFORMACIÓN METAR y TAF
METAR FOR HLLB
ADDS - METARS form results

(1939 UTC 02 June 2020)
Data provider http://aviationweather.gov/metar/data/
 
Forecast for: HLLB (BENINA/BENGHAZI , LY)
Text: TAF HLLB 021100Z 0212/0312 35015KT 9999 SCT025
Forecast period: 1200 UTC 02 June 2020 to 1200 UTC 03 June 2020
Forecast type: FROM: standard forecast or significant change
Winds: from the N (350 degrees) at 17 MPH (15 knots; 7.7 m/s)
Visibility: 6 or more miles 10+ km)
Ceiling: at least 12,000 feet AGL
Clouds: scattered clouds at 2500 feet AGL
Weather: no significant weather forecast for this period

MAPA DE AEROPUERTO

INFORMACIÓN DE PISTA
Pista 15L Longitud 11732 ft Ancho 148 ft
Elevación 372 ft Umbral desplazado 0 ft Rumbo de pista 151
Pista 33R Longitud 11732 ft Ancho 148 ft
Elevación 433 ft Umbral desplazado 0 ft Rumbo de pista 331
Pista 15R Longitud 11731 ft Ancho 148 ft
Elevación 372 ft Umbral desplazado 0 ft Rumbo de pista 151
Pista 33L Longitud 11731 ft Ancho 148 ft
Elevación 429 ft Umbral desplazado 0 ft Rumbo de pista 331

FRECUANCIAS DEL AEROPUERTO
Tipo APP Nombre BENGHAZI A Frecuencia 126.5 MHZ
Tipo ARR Nombre ARR Frecuencia 127 MHZ
Tipo DEP Nombre DEP Frecuencia 127 MHZ
Tipo GND Nombre GND Frecuencia 121.3 MHZ
Tipo TWR Nombre TWR Frecuencia 118.1 MHZ

RADIO AYUDAS DEL AEROPUERTO
Tipo VOR-DME Nombre Benina Frecuencia 117400 KHZ
Tipo NDB Nombre Benina Frecuencia 342 KHZ
Tipo VOR-DME Nombre Sirte Frecuencia 117000 KHZ